createdAt,value
2023-03-27T00:01:16.420Z,7.10
2023-03-27T00:03:43.654Z,6.40
2023-03-27T00:06:17.252Z,5.90
2023-03-27T00:08:50.884Z,6.32
2023-03-27T00:11:18.399Z,7.25
2023-03-27T00:13:50.595Z,6.50
2023-03-27T00:16:22.937Z,6.60
2023-03-27T00:18:49.603Z,6.20
2023-03-27T00:21:16.305Z,6.60
2023-03-27T00:23:42.929Z,6.38
2023-03-27T00:26:11.727Z,6.10
2023-03-27T00:28:38.459Z,6.45
2023-03-27T00:31:10.594Z,7.40
2023-03-27T00:33:37.588Z,6.28
2023-03-27T00:36:04.810Z,6.75
2023-03-27T00:38:32.195Z,7.43
2023-03-27T00:40:59.749Z,6.45
2023-03-27T00:43:35.249Z,8.50
2023-03-27T00:46:40.357Z,6.40
2023-03-27T00:49:11.761Z,6.50
2023-03-27T00:51:41.079Z,6.68
2023-03-27T00:54:09.706Z,6.13
2023-03-27T00:56:38.535Z,6.80
2023-03-27T00:59:10.252Z,6.30
2023-03-27T01:01:37.799Z,5.85
2023-03-27T01:04:07.327Z,6.13
2023-03-27T01:06:34.688Z,6.45
2023-03-27T01:09:01.498Z,6.00
2023-03-27T01:11:56.343Z,7.50
2023-03-27T01:14:47.101Z,7.25
2023-03-27T01:17:28.702Z,6.10
2023-03-27T01:20:15.365Z,6.45
2023-03-27T01:23:09.921Z,6.40
2023-03-27T01:25:56.090Z,5.68
2023-03-27T01:28:55.874Z,6.45
2023-03-27T01:31:49.587Z,5.90
2023-03-27T01:34:44.917Z,6.95
2023-03-27T01:37:50.222Z,6.63
2023-03-27T01:40:21.640Z,6.13
2023-03-27T01:42:53.811Z,6.60
2023-03-27T01:45:43.835Z,6.32
2023-03-27T01:48:22.432Z,6.63
2023-03-27T01:51:03.550Z,6.43
2023-03-27T01:53:34.255Z,6.35
2023-03-27T01:56:09.430Z,6.15
2023-03-27T01:58:41.747Z,6.50
2023-03-27T02:01:10.773Z,6.68
2023-03-27T02:03:43.729Z,6.18
2023-03-27T02:06:33.448Z,6.55
2023-03-27T02:09:12.971Z,6.70
2023-03-27T02:11:50.300Z,6.32
2023-03-27T02:14:28.531Z,6.75
2023-03-27T02:17:00.311Z,6.22
2023-03-27T02:19:35.094Z,6.65
2023-03-27T02:22:02.197Z,6.35
2023-03-27T02:24:28.817Z,6.70
2023-03-27T02:27:09.120Z,6.10
2023-03-27T02:30:09.327Z,5.85
2023-03-27T02:32:36.159Z,6.00
2023-03-27T02:35:20.143Z,6.60
2023-03-27T02:37:59.854Z,5.97
2023-03-27T02:40:43.314Z,6.45
2023-03-27T02:43:19.910Z,6.10
2023-03-27T02:45:49.603Z,6.00
2023-03-27T02:48:35.373Z,6.35
2023-03-27T02:51:07.503Z,7.43
2023-03-27T02:53:40.171Z,5.90
2023-03-27T02:56:09.710Z,6.60
2023-03-27T02:58:39.778Z,5.97
2023-03-27T03:01:09.671Z,6.35
2023-03-27T03:03:53.640Z,5.90
2023-03-27T03:06:22.056Z,6.10
2023-03-27T03:08:49.461Z,5.90
2023-03-27T03:11:16.119Z,6.18
2023-03-27T03:13:42.791Z,5.90
2023-03-27T03:16:10.138Z,7.07
2023-03-27T03:18:36.979Z,5.63
2023-03-27T03:21:04.685Z,5.85
2023-03-27T03:23:31.866Z,5.80
2023-03-27T03:25:58.619Z,6.68
2023-03-27T03:28:28.090Z,6.10
2023-03-27T03:30:55.334Z,6.75
2023-03-27T03:33:22.354Z,6.38
2023-03-27T03:35:50.383Z,5.80
2023-03-27T03:38:25.022Z,6.15
2023-03-27T03:40:53.791Z,5.80
2023-03-27T03:43:22.825Z,6.35
2023-03-27T03:45:50.556Z,6.00
2023-03-27T03:48:18.336Z,6.05
2023-03-27T03:50:46.333Z,6.30
2023-03-27T03:53:14.228Z,6.35
2023-03-27T03:55:41.039Z,7.50
2023-03-27T03:58:07.992Z,5.80
2023-03-27T04:00:38.056Z,6.60
2023-03-27T04:03:07.309Z,6.05
2023-03-27T04:05:35.366Z,5.80
2023-03-27T04:08:02.890Z,6.30
2023-03-27T04:10:30.159Z,6.10
2023-03-27T04:12:58.475Z,8.60
2023-03-27T04:15:27.067Z,5.90
2023-03-27T04:17:54.084Z,6.20
2023-03-27T04:20:20.742Z,5.97
2023-03-27T04:22:49.067Z,5.70
2023-03-27T04:25:17.857Z,5.93
2023-03-27T04:27:44.627Z,7.05
2023-03-27T04:30:15.843Z,5.80
2023-03-27T04:32:43.576Z,5.95
2023-03-27T04:35:10.919Z,6.25
2023-03-27T04:37:41.676Z,6.40
2023-03-27T04:40:10.292Z,5.80
2023-03-27T04:42:43.993Z,5.90
2023-03-27T04:45:25.497Z,6.28
2023-03-27T04:47:52.201Z,6.10
2023-03-27T04:50:19.144Z,6.47
2023-03-27T04:52:49.712Z,6.10
2023-03-27T04:55:18.155Z,5.95
2023-03-27T04:57:48.204Z,6.40
2023-03-27T05:00:19.581Z,6.47
2023-03-27T05:02:53.732Z,7.90
2023-03-27T05:05:20.917Z,6.25
2023-03-27T05:07:48.772Z,6.28
2023-03-27T05:10:17.284Z,6.60
2023-03-27T05:12:50.460Z,6.28
2023-03-27T05:15:18.312Z,6.40
2023-03-27T05:17:47.045Z,6.35
2023-03-27T05:20:17.073Z,5.90
2023-03-27T05:22:44.288Z,6.32
2023-03-27T05:25:12.014Z,5.80
2023-03-27T05:27:40.143Z,6.07
2023-03-27T05:30:07.490Z,6.80
2023-03-27T05:32:35.487Z,6.00
2023-03-27T05:35:02.172Z,5.75
2023-03-27T05:37:29.094Z,5.88
2023-03-27T05:39:55.705Z,8.50
2023-03-27T05:42:22.311Z,5.80
2023-03-27T05:44:49.420Z,6.10
2023-03-27T05:47:16.212Z,6.00
2023-03-27T05:49:42.890Z,6.05
2023-03-27T05:52:09.590Z,6.32
2023-03-27T05:54:36.285Z,6.15
2023-03-27T05:57:03.067Z,6.00
2023-03-27T05:59:29.832Z,5.50
2023-03-27T06:01:58.428Z,5.75
2023-03-27T06:04:25.217Z,5.80
2023-03-27T06:06:51.878Z,5.70
2023-03-27T06:09:18.500Z,5.30
2023-03-27T06:11:46.050Z,5.50
2023-03-27T06:14:12.691Z,5.43
2023-03-27T06:16:39.975Z,5.18
2023-03-27T06:19:07.331Z,5.15
2023-03-27T06:21:33.952Z,5.60
2023-03-27T06:24:00.785Z,5.50
2023-03-27T06:26:28.282Z,5.50
2023-03-27T06:28:55.224Z,5.32
2023-03-27T06:31:22.074Z,5.40
2023-03-27T06:33:49.006Z,5.35
2023-03-27T06:36:15.899Z,5.30
2023-03-27T06:38:42.579Z,5.80
2023-03-27T06:41:10.344Z,5.93
2023-03-27T06:43:36.971Z,5.65
2023-03-27T06:46:05.088Z,5.55
2023-03-27T06:48:31.830Z,5.28
2023-03-27T06:50:58.742Z,5.80
2023-03-27T06:53:27.669Z,5.68
2023-03-27T06:55:56.243Z,5.40
2023-03-27T06:58:23.555Z,5.35
2023-03-27T07:00:51.180Z,5.85
2023-03-27T07:03:19.219Z,4.90
2023-03-27T07:05:45.993Z,5.60
2023-03-27T07:10:47.039Z,5.00
2023-03-27T07:13:17.768Z,5.88
2023-03-27T07:15:44.375Z,5.55
2023-03-27T07:18:11.473Z,5.35
2023-03-27T07:20:38.312Z,5.70
2023-03-27T07:23:05.181Z,5.72
2023-03-27T07:25:37.360Z,6.53
2023-03-27T07:28:09.951Z,5.93
2023-03-27T07:30:37.595Z,5.60
2023-03-27T07:33:07.234Z,5.90
2023-03-27T07:35:34.011Z,5.10
2023-03-27T07:38:03.169Z,5.40
2023-03-27T07:40:39.347Z,5.47
2023-03-27T07:43:07.224Z,5.07
2023-03-27T07:45:35.192Z,4.57
2023-03-27T07:48:14.792Z,4.30
2023-03-27T07:50:42.164Z,5.90
2023-03-27T07:53:08.809Z,4.60
2023-03-27T07:55:37.860Z,5.30
2023-03-27T07:58:06.862Z,4.30
2023-03-27T08:00:35.953Z,4.00
2023-03-27T08:03:08.433Z,3.85
2023-03-27T08:05:36.505Z,4.63
2023-03-27T08:08:04.803Z,3.88
2023-03-27T08:10:31.449Z,4.00
2023-03-27T08:12:58.053Z,3.90
2023-03-27T08:15:25.232Z,3.95
2023-03-27T08:17:54.887Z,4.13
2023-03-27T08:20:23.625Z,4.00
2023-03-27T08:22:52.457Z,3.88
2023-03-27T08:25:19.832Z,3.90
2023-03-27T08:27:46.650Z,4.10
2023-03-27T08:30:16.734Z,3.50
2023-03-27T08:32:44.253Z,3.60
2023-03-27T08:35:12.154Z,3.53
2023-03-27T08:37:39.579Z,3.60
2023-03-27T08:40:13.183Z,3.93
2023-03-27T08:42:43.909Z,3.90
2023-03-27T08:45:24.261Z,3.50
2023-03-27T08:47:58.057Z,3.90
2023-03-27T08:50:51.856Z,4.20
2023-03-27T08:53:40.475Z,4.55
2023-03-27T08:56:15.231Z,4.30
2023-03-27T08:58:45.597Z,4.10
2023-03-27T09:01:29.531Z,4.43
2023-03-27T09:04:32.161Z,4.00
2023-03-27T09:07:10.218Z,3.90
2023-03-27T09:09:55.572Z,4.30
2023-03-27T09:12:42.886Z,3.90
2023-03-27T09:15:15.337Z,3.80
2023-03-27T09:18:04.429Z,4.50
2023-03-27T09:20:40.708Z,4.13
2023-03-27T09:23:25.882Z,4.28
2023-03-27T09:26:01.129Z,3.90
2023-03-27T09:28:36.947Z,4.30
2023-03-27T09:31:22.147Z,4.18
2023-03-27T09:33:48.897Z,3.90
2023-03-27T09:36:15.679Z,3.97
2023-03-27T09:38:50.439Z,3.60
2023-03-27T09:41:26.892Z,3.38
2023-03-27T09:44:25.582Z,3.40
2023-03-27T09:46:58.889Z,3.70
2023-03-27T09:49:27.203Z,3.42
2023-03-27T09:51:56.593Z,3.55
2023-03-27T09:54:25.168Z,3.45
2023-03-27T09:57:11.076Z,3.63
2023-03-27T09:59:51.252Z,4.30
2023-03-27T10:02:29.639Z,4.53
2023-03-27T10:05:15.550Z,3.90
2023-03-27T10:07:42.792Z,3.88
2023-03-27T10:10:21.889Z,3.90
2023-03-27T10:12:55.754Z,3.63
2023-03-27T10:15:38.438Z,4.15
2023-03-27T10:18:27.456Z,4.10
2023-03-27T10:20:56.715Z,4.30
2023-03-27T10:23:44.631Z,4.63
2023-03-27T10:26:13.961Z,4.55
2023-03-27T10:28:46.198Z,4.10
2023-03-27T10:31:48.437Z,3.80
2023-03-27T10:34:37.422Z,4.07
2023-03-27T10:37:39.107Z,3.90
2023-03-27T10:40:09.175Z,3.90
2023-03-27T10:42:36.963Z,3.88
2023-03-27T10:45:04.197Z,3.67
2023-03-27T10:47:33.565Z,3.78
2023-03-27T10:50:18.562Z,3.70
2023-03-27T10:53:03.966Z,4.05
2023-03-27T10:56:01.648Z,3.92
2023-03-27T10:58:53.368Z,3.92
2023-03-27T11:01:32.016Z,4.00
2023-03-27T11:04:33.654Z,3.55
2023-03-27T11:07:03.262Z,4.10
2023-03-27T11:09:34.788Z,4.47
2023-03-27T11:12:09.327Z,4.20
2023-03-27T11:14:44.495Z,3.95
2023-03-27T11:17:16.342Z,3.90
2023-03-27T11:19:43.026Z,3.55
2023-03-27T11:22:16.730Z,4.00
2023-03-27T11:25:07.664Z,3.70
2023-03-27T11:27:41.217Z,3.90
2023-03-27T11:30:08.243Z,3.92
2023-03-27T11:32:52.885Z,3.75
2023-03-27T11:35:25.871Z,4.22
2023-03-27T11:37:59.704Z,3.67
2023-03-27T11:40:39.784Z,3.95
2023-03-27T11:43:11.512Z,4.93
2023-03-27T11:46:09.695Z,4.00
2023-03-27T11:49:05.925Z,4.07
2023-03-27T11:51:48.409Z,4.00
2023-03-27T11:54:27.723Z,3.80
2023-03-27T11:56:57.826Z,4.22
2023-03-27T11:59:39.030Z,4.53
2023-03-27T12:02:39.102Z,4.55
2023-03-27T12:05:12.956Z,4.85
2023-03-27T12:08:08.666Z,4.40
2023-03-27T12:10:38.640Z,4.70
2023-03-27T12:13:41.739Z,4.55
2023-03-27T12:16:28.519Z,4.38
2023-03-27T12:19:08.348Z,4.00
2023-03-27T12:22:23.552Z,3.95
2023-03-27T12:24:59.496Z,4.38
2023-03-27T12:27:39.260Z,4.15
2023-03-27T12:30:43.343Z,4.05
2023-03-27T12:33:21.844Z,4.40
2023-03-27T12:35:52.560Z,4.40
2023-03-27T12:38:32.539Z,4.00
2023-03-27T12:41:05.299Z,4.88
2023-03-27T12:43:43.762Z,3.88
2023-03-27T12:46:13.051Z,4.10
2023-03-27T12:48:54.459Z,4.35
2023-03-27T12:51:42.257Z,4.32
2023-03-27T12:54:13.062Z,4.97
2023-03-27T12:56:40.013Z,5.03
2023-03-27T12:59:18.845Z,4.32
2023-03-27T13:02:16.816Z,4.53
2023-03-27T13:04:59.387Z,5.28
2023-03-27T13:07:53.436Z,4.38
2023-03-27T13:11:00.657Z,4.50
2023-03-27T13:13:37.872Z,4.25
2023-03-27T13:16:19.822Z,4.05
2023-03-27T13:19:09.515Z,4.05
2023-03-27T13:21:59.678Z,4.18
2023-03-27T13:24:48.214Z,4.10
2023-03-27T13:27:39.727Z,4.63
2023-03-27T13:30:27.312Z,4.40
2023-03-27T13:33:30.019Z,3.80
2023-03-27T13:36:14.433Z,4.00
2023-03-27T13:38:51.898Z,3.90
2023-03-27T13:41:43.680Z,4.22
2023-03-27T13:44:54.754Z,3.80
2023-03-27T13:47:39.209Z,4.05
2023-03-27T13:50:29.761Z,4.65
2023-03-27T13:53:23.917Z,4.05
2023-03-27T13:56:16.768Z,4.07
2023-03-27T13:59:04.938Z,4.10
2023-03-27T14:01:56.834Z,4.25
2023-03-27T14:04:42.053Z,4.55
2023-03-27T14:07:30.756Z,4.70
2023-03-27T14:10:15.375Z,4.60
2023-03-27T14:13:09.807Z,4.00
2023-03-27T14:16:11.040Z,4.55
2023-03-27T14:18:55.945Z,4.93
2023-03-27T14:21:35.624Z,4.57
2023-03-27T14:24:22.011Z,4.75
2023-03-27T14:26:49.406Z,4.93
2023-03-27T14:29:16.909Z,5.05
2023-03-27T14:31:44.557Z,5.10
2023-03-27T14:34:17.044Z,5.40
2023-03-27T14:36:49.719Z,5.70
2023-03-27T14:39:22.539Z,5.32
2023-03-27T14:41:58.411Z,5.00
2023-03-27T14:44:26.738Z,5.95
2023-03-27T14:47:01.856Z,5.60
2023-03-27T14:49:58.820Z,5.10
2023-03-27T14:52:33.246Z,4.95
2023-03-27T14:54:59.985Z,5.40
2023-03-27T14:57:27.976Z,4.88
2023-03-27T14:59:55.205Z,5.10
2023-03-27T15:02:34.698Z,5.10
2023-03-27T15:05:11.923Z,4.82
2023-03-27T15:07:38.623Z,5.40
2023-03-27T15:10:05.215Z,5.00
2023-03-27T15:12:33.480Z,4.90
2023-03-27T15:15:00.169Z,5.05
2023-03-27T15:17:30.421Z,5.50
2023-03-27T15:20:14.253Z,4.68
2023-03-27T15:22:47.305Z,5.80
2023-03-27T15:25:18.620Z,5.10
2023-03-27T15:27:56.000Z,5.05
2023-03-27T15:30:43.506Z,4.88
2023-03-27T15:33:20.225Z,5.55
2023-03-27T15:35:51.637Z,5.05
2023-03-27T15:38:25.672Z,5.47
2023-03-27T15:41:20.624Z,4.80
2023-03-27T15:43:47.482Z,4.72
2023-03-27T15:46:19.802Z,4.95
2023-03-27T15:48:51.214Z,4.90
2023-03-27T15:51:21.000Z,5.05
2023-03-27T15:53:50.859Z,4.90
2023-03-27T15:56:24.813Z,4.93
2023-03-27T15:59:04.100Z,5.22
2023-03-27T16:01:43.786Z,4.90
2023-03-27T16:04:13.395Z,4.90
2023-03-27T16:06:45.466Z,4.82
2023-03-27T16:09:52.922Z,4.65
2023-03-27T16:12:22.506Z,4.97
2023-03-27T16:14:49.095Z,4.90
2023-03-27T16:17:24.893Z,4.80
2023-03-27T16:20:22.783Z,5.10
2023-03-27T16:22:50.113Z,4.80
2023-03-27T16:25:17.213Z,5.13
2023-03-27T16:27:50.828Z,4.88
2023-03-27T16:30:31.890Z,4.95
2023-03-27T16:32:59.938Z,5.15
2023-03-27T16:35:29.264Z,5.03
2023-03-27T16:37:56.433Z,4.85
2023-03-27T16:40:23.505Z,5.55
2023-03-27T16:42:50.496Z,5.70
2023-03-27T16:45:17.185Z,5.20
2023-03-27T16:47:44.068Z,5.40
2023-03-27T16:50:18.212Z,5.00
2023-03-27T16:52:44.868Z,5.70
2023-03-27T16:55:13.745Z,5.63
2023-03-27T16:57:41.840Z,5.03
2023-03-27T17:00:09.697Z,5.10
2023-03-27T17:02:36.753Z,5.10
2023-03-27T17:05:04.791Z,5.22
2023-03-27T17:07:31.627Z,6.00
2023-03-27T17:09:58.277Z,5.25
2023-03-27T17:12:25.287Z,5.65
2023-03-27T17:14:52.434Z,5.25
2023-03-27T17:17:19.046Z,5.50
2023-03-27T17:19:45.824Z,5.40
2023-03-27T17:22:13.198Z,5.35
2023-03-27T17:24:53.294Z,5.55
2023-03-27T17:27:22.631Z,5.45
2023-03-27T17:29:49.250Z,5.30
2023-03-27T17:32:15.857Z,6.20
2023-03-27T17:34:42.657Z,5.97
2023-03-27T17:37:09.269Z,5.88
2023-03-27T17:39:35.983Z,5.35
2023-03-27T17:42:02.977Z,5.65
2023-03-27T17:44:29.714Z,5.43
2023-03-27T17:46:56.354Z,5.78
2023-03-27T17:49:22.992Z,5.68
2023-03-27T17:51:49.623Z,5.97
2023-03-27T17:54:17.312Z,6.05
2023-03-27T17:56:43.980Z,5.70
2023-03-27T17:59:10.669Z,6.20
2023-03-27T18:01:37.386Z,5.72
2023-03-27T18:04:04.266Z,6.00
2023-03-27T18:06:31.115Z,5.70
2023-03-27T18:08:58.129Z,5.80
2023-03-27T18:11:24.751Z,5.47
2023-03-27T18:13:53.160Z,5.65
2023-03-27T18:16:21.596Z,5.57
2023-03-27T18:18:48.860Z,5.50
2023-03-27T18:21:16.417Z,5.53
2023-03-27T18:23:46.189Z,5.78
2023-03-27T18:26:13.974Z,6.10
2023-03-27T18:28:40.681Z,5.68
2023-03-27T18:31:10.359Z,6.00
2023-03-27T18:33:37.507Z,6.53
2023-03-27T18:36:10.670Z,6.05
2023-03-27T18:38:39.863Z,6.30
2023-03-27T18:41:06.860Z,5.95
2023-03-27T18:43:33.971Z,5.78
2023-03-27T18:46:04.091Z,5.88
2023-03-27T18:48:31.147Z,6.00
2023-03-27T18:51:02.923Z,5.57
2023-03-27T18:53:30.072Z,5.60
2023-03-27T18:55:58.421Z,6.05
2023-03-27T18:58:27.545Z,5.72
2023-03-27T19:00:55.654Z,6.65
2023-03-27T19:03:24.559Z,6.35
2023-03-27T19:05:52.300Z,6.00
2023-03-27T19:08:21.116Z,6.00
2023-03-27T19:10:47.812Z,6.10
2023-03-27T19:13:14.449Z,6.07
2023-03-27T19:15:41.990Z,6.28
2023-03-27T19:18:09.289Z,6.70
2023-03-27T19:20:36.272Z,6.28
2023-03-27T19:23:03.132Z,6.25
2023-03-27T19:25:29.804Z,5.95
2023-03-27T19:27:56.468Z,6.28
2023-03-27T19:30:23.301Z,6.57
2023-03-27T19:32:51.409Z,6.22
2023-03-27T19:35:19.665Z,5.88
2023-03-27T19:37:47.135Z,5.97
2023-03-27T19:40:14.116Z,6.10
2023-03-27T19:42:41.766Z,6.38
2023-03-27T19:45:08.909Z,5.80
2023-03-27T19:47:35.528Z,5.70
2023-03-27T19:50:02.212Z,6.15
2023-03-27T19:52:29.876Z,6.15
2023-03-27T19:54:56.538Z,5.70
2023-03-27T19:57:23.201Z,6.05
2023-03-27T19:59:50.593Z,6.45
2023-03-27T20:02:17.317Z,5.82
2023-03-27T20:04:44.179Z,6.00
2023-03-27T20:07:10.853Z,5.88
2023-03-27T20:09:37.831Z,5.90
2023-03-27T20:12:05.511Z,5.47
2023-03-27T20:14:32.364Z,6.15
2023-03-27T20:16:59.007Z,6.30
2023-03-27T20:19:28.805Z,6.10
2023-03-27T20:21:57.492Z,7.03
2023-03-27T20:24:24.210Z,6.15
2023-03-27T20:26:53.856Z,6.57
2023-03-27T20:29:23.059Z,6.47
2023-03-27T20:31:49.907Z,5.85
2023-03-27T20:34:19.623Z,6.32
2023-03-27T20:36:47.185Z,5.97
2023-03-27T20:39:14.317Z,5.68
2023-03-27T20:41:41.478Z,5.90
2023-03-27T20:44:16.341Z,6.18
2023-03-27T20:46:51.215Z,6.05
2023-03-27T20:49:39.840Z,5.90
2023-03-27T20:52:12.436Z,6.63
2023-03-27T20:54:39.138Z,6.10
2023-03-27T20:57:06.315Z,6.32
2023-03-27T20:59:33.016Z,6.85
2023-03-27T21:02:00.375Z,6.00
2023-03-27T21:04:28.561Z,6.05
2023-03-27T21:06:55.778Z,6.40
2023-03-27T21:09:23.291Z,6.63
2023-03-27T21:11:50.529Z,6.50
2023-03-27T21:14:17.486Z,6.45
2023-03-27T21:16:44.247Z,6.28
2023-03-27T21:19:11.903Z,6.50
2023-03-27T21:21:39.403Z,6.22
2023-03-27T21:24:06.603Z,6.32
2023-03-27T21:26:34.058Z,6.30
2023-03-27T21:29:01.218Z,6.22
2023-03-27T21:31:27.985Z,6.32
2023-03-27T21:33:54.657Z,6.20
2023-03-27T21:36:21.420Z,5.90
2023-03-27T21:38:48.119Z,6.53
2023-03-27T21:41:16.396Z,6.10
2023-03-27T21:43:43.161Z,5.97
2023-03-27T21:46:10.515Z,6.15
2023-03-27T21:48:37.220Z,6.30
2023-03-27T21:51:06.129Z,6.32
2023-03-27T21:53:32.924Z,6.78
2023-03-27T21:56:00.572Z,6.30
2023-03-27T21:58:27.839Z,6.70
2023-03-27T22:00:58.522Z,6.05
2023-03-27T22:03:26.724Z,7.00
2023-03-27T22:06:08.024Z,6.43
2023-03-27T22:08:39.977Z,6.15
2023-03-27T22:11:07.285Z,6.35
2023-03-27T22:13:38.287Z,6.20
2023-03-27T22:16:13.329Z,6.70
2023-03-27T22:18:40.602Z,6.15
2023-03-27T22:21:23.121Z,6.50
2023-03-27T22:23:51.118Z,6.57
2023-03-27T22:26:23.592Z,6.90
2023-03-27T22:28:52.450Z,6.40
2023-03-27T22:31:20.461Z,6.40
2023-03-27T22:33:47.860Z,6.43
2023-03-27T22:36:14.574Z,6.20
2023-03-27T22:38:42.161Z,6.20
2023-03-27T22:41:10.651Z,7.13
2023-03-27T22:43:37.974Z,7.75
2023-03-27T22:46:06.000Z,6.32
2023-03-27T22:48:33.489Z,6.60
2023-03-27T22:51:00.415Z,6.47
2023-03-27T22:53:27.682Z,6.60
2023-03-27T22:55:56.621Z,6.85
2023-03-27T22:58:24.473Z,6.50
2023-03-27T23:00:52.598Z,6.38
2023-03-27T23:03:20.514Z,5.85
2023-03-27T23:05:49.468Z,6.70
2023-03-27T23:08:18.163Z,6.50
2023-03-27T23:10:45.741Z,6.90
2023-03-27T23:13:13.234Z,7.00
2023-03-27T23:15:39.847Z,6.45
2023-03-27T23:18:06.567Z,6.28
2023-03-27T23:20:33.285Z,5.90
2023-03-27T23:22:59.896Z,6.07
2023-03-27T23:25:26.519Z,6.28
2023-03-27T23:27:53.262Z,6.10
2023-03-27T23:30:20.240Z,6.03
2023-03-27T23:32:46.919Z,6.28
2023-03-27T23:35:13.619Z,6.22
2023-03-27T23:37:40.401Z,6.03
2023-03-27T23:40:07.793Z,6.45
2023-03-27T23:42:34.394Z,6.30
2023-03-27T23:45:01.016Z,6.28
2023-03-27T23:47:27.652Z,6.03
2023-03-27T23:49:54.267Z,6.00
2023-03-27T23:52:21.164Z,6.25
2023-03-27T23:54:47.762Z,6.13
2023-03-27T23:57:14.494Z,6.40
2023-03-27T23:59:41.371Z,6.35
